createdAt,value
2022-09-11T00:01:14.207Z,22.47
2022-09-11T00:03:15.550Z,22.45
2022-09-11T00:05:17.038Z,22.45
2022-09-11T00:07:18.347Z,22.43
2022-09-11T00:09:19.669Z,22.44
2022-09-11T00:11:20.971Z,22.42
2022-09-11T00:13:22.380Z,22.41
2022-09-11T00:15:23.669Z,22.40
2022-09-11T00:17:24.966Z,22.40
2022-09-11T00:19:28.169Z,22.39
2022-09-11T00:21:29.595Z,22.39
2022-09-11T00:23:30.914Z,22.38
2022-09-11T00:25:32.513Z,22.37
2022-09-11T00:27:33.810Z,22.35
2022-09-11T00:29:35.683Z,22.36
2022-09-11T00:31:37.091Z,22.36
2022-09-11T00:33:38.602Z,22.36
2022-09-11T00:35:40.043Z,22.32
2022-09-11T00:37:41.331Z,22.29
2022-09-11T00:39:43.012Z,22.26
2022-09-11T00:41:45.049Z,22.25
2022-09-11T00:43:46.331Z,22.26
2022-09-11T00:45:47.666Z,22.25
2022-09-11T00:47:48.966Z,22.25
2022-09-11T00:49:51.122Z,22.26
2022-09-11T00:51:53.441Z,22.25
2022-09-11T00:53:54.747Z,22.24
2022-09-11T00:55:56.011Z,22.23
2022-09-11T00:57:57.330Z,22.23
2022-09-11T00:59:58.942Z,22.20
2022-09-11T01:02:00.713Z,22.19
2022-09-11T01:04:02.034Z,22.18
2022-09-11T01:06:03.334Z,22.19
2022-09-11T01:08:04.719Z,22.20
2022-09-11T01:10:06.051Z,22.20
2022-09-11T01:12:07.592Z,22.20
2022-09-11T01:14:08.869Z,22.20
2022-09-11T01:16:10.253Z,22.19
2022-09-11T01:18:12.646Z,22.17
2022-09-11T01:20:13.923Z,22.17
2022-09-11T01:22:15.198Z,22.16
2022-09-11T01:24:16.483Z,22.16
2022-09-11T01:26:18.857Z,22.14
2022-09-11T01:28:20.154Z,22.12
2022-09-11T01:30:21.436Z,22.12
2022-09-11T01:32:22.763Z,22.13
2022-09-11T01:34:24.064Z,22.21
2022-09-11T01:36:25.339Z,22.22
2022-09-11T01:38:26.846Z,22.24
2022-09-11T01:40:28.109Z,22.23
2022-09-11T01:42:31.567Z,22.24
2022-09-11T01:44:32.835Z,22.23
2022-09-11T01:46:35.242Z,22.22
2022-09-11T01:48:39.013Z,22.21
2022-09-11T01:50:40.298Z,22.19
2022-09-11T01:52:41.569Z,22.18
2022-09-11T01:54:42.826Z,22.18
2022-09-11T01:56:45.007Z,22.17
2022-09-11T01:58:46.316Z,22.17
2022-09-11T02:00:49.889Z,22.18
2022-09-11T02:02:52.111Z,22.19
2022-09-11T02:04:53.410Z,22.18
2022-09-11T02:06:54.675Z,22.18
2022-09-11T02:08:56.002Z,22.19
2022-09-11T02:10:57.258Z,22.17
2022-09-11T02:12:58.513Z,22.17
2022-09-11T02:14:59.852Z,22.17
2022-09-11T02:17:01.134Z,22.21
2022-09-11T02:19:02.468Z,22.05
2022-09-11T02:21:03.752Z,22.06
2022-09-11T02:23:06.328Z,22.03
2022-09-11T02:25:07.758Z,22.05
2022-09-11T02:27:09.143Z,22.04
2022-09-11T02:29:10.417Z,22.06
2022-09-11T02:33:13.304Z,22.07
2022-09-11T02:35:16.296Z,22.08
2022-09-11T02:37:18.216Z,22.08
2022-09-11T02:39:19.475Z,22.06
2022-09-11T02:41:20.743Z,22.07
2022-09-11T02:43:22.675Z,22.06
2022-09-11T02:45:23.998Z,22.06
2022-09-11T02:47:25.299Z,22.06
2022-09-11T02:49:26.621Z,22.06
2022-09-11T02:51:28.952Z,22.04
2022-09-11T02:53:30.274Z,22.04
2022-09-11T02:55:31.845Z,22.03
2022-09-11T02:57:33.121Z,22.00
2022-09-11T02:59:34.421Z,22.03
2022-09-11T03:01:35.717Z,22.04
2022-09-11T03:03:37.067Z,22.06
2022-09-11T03:05:40.324Z,22.07
2022-09-11T03:07:41.591Z,22.08
2022-09-11T03:09:43.290Z,22.06
2022-09-11T03:11:45.408Z,22.04
2022-09-11T03:13:46.763Z,22.03
2022-09-11T03:15:48.155Z,22.03
2022-09-11T03:17:49.507Z,22.03
2022-09-11T03:19:50.831Z,22.01
2022-09-11T03:21:52.149Z,22.06
2022-09-11T03:23:53.446Z,22.08
2022-09-11T03:25:55.572Z,22.07
2022-09-11T03:27:56.910Z,22.07
2022-09-11T03:29:58.654Z,22.07
2022-09-11T03:32:00.016Z,22.04
2022-09-11T03:34:01.342Z,22.03
2022-09-11T03:36:03.413Z,22.02
2022-09-11T03:38:04.699Z,22.00
2022-09-11T03:40:06.106Z,21.98
2022-09-11T03:42:07.435Z,21.97
2022-09-11T03:44:08.703Z,21.95
2022-09-11T03:46:10.282Z,21.95
2022-09-11T03:48:11.605Z,21.94
2022-09-11T03:50:12.880Z,21.94
2022-09-11T03:52:14.185Z,22.02
2022-09-11T03:54:18.546Z,22.04
2022-09-11T03:56:21.102Z,22.05
2022-09-11T03:58:22.415Z,22.04
2022-09-11T04:00:23.685Z,22.02
2022-09-11T04:02:24.951Z,22.00
2022-09-11T04:04:26.275Z,22.00
2022-09-11T04:06:27.631Z,22.00
2022-09-11T04:08:33.526Z,22.05
2022-09-11T04:10:35.409Z,22.04
2022-09-11T04:12:36.687Z,22.01
2022-09-11T04:14:38.000Z,22.01
2022-09-11T04:16:39.360Z,21.99
2022-09-11T04:18:40.932Z,21.96
2022-09-11T04:20:42.211Z,21.94
2022-09-11T04:22:43.502Z,21.92
2022-09-11T04:24:44.878Z,21.91
2022-09-11T04:26:46.190Z,21.89
2022-09-11T04:28:47.464Z,21.93
2022-09-11T04:30:48.810Z,21.97
2022-09-11T04:32:50.373Z,22.00
2022-09-11T04:34:51.707Z,22.04
2022-09-11T04:36:55.382Z,22.02
2022-09-11T04:38:56.848Z,22.02
2022-09-11T04:40:58.667Z,22.02
2022-09-11T04:43:01.018Z,22.04
2022-09-11T04:45:02.456Z,22.05
2022-09-11T04:47:03.746Z,22.03
2022-09-11T04:49:05.061Z,22.03
2022-09-11T04:51:06.381Z,22.01
2022-09-11T04:53:07.671Z,22.01
2022-09-11T04:55:08.946Z,22.01
2022-09-11T04:57:10.314Z,22.03
2022-09-11T04:59:13.529Z,22.01
2022-09-11T05:01:14.888Z,22.02
2022-09-11T05:03:16.195Z,21.98
2022-09-11T05:05:17.933Z,21.93
2022-09-11T05:07:19.290Z,21.92
2022-09-11T05:09:20.589Z,21.92
2022-09-11T05:11:21.926Z,21.90
2022-09-11T05:13:23.559Z,21.89
2022-09-11T05:15:24.884Z,21.87
2022-09-11T05:17:26.174Z,21.86
2022-09-11T05:19:27.430Z,21.13
2022-09-11T05:21:28.798Z,21.83
2022-09-11T05:23:30.292Z,21.82
2022-09-11T05:25:31.928Z,21.81
2022-09-11T05:27:33.257Z,21.81
2022-09-11T05:29:34.517Z,21.80
2022-09-11T05:31:37.249Z,21.80
2022-09-11T05:33:38.688Z,21.78
2022-09-11T05:35:40.822Z,21.78
2022-09-11T05:37:42.140Z,21.79
2022-09-11T05:39:43.493Z,21.79
2022-09-11T05:41:44.910Z,20.87
2022-09-11T05:43:46.180Z,21.77
2022-09-11T05:45:47.946Z,21.77
2022-09-11T05:47:53.099Z,21.76
2022-09-11T05:49:56.663Z,21.88
2022-09-11T05:51:58.042Z,21.93
2022-09-11T05:53:59.326Z,21.94
2022-09-11T05:56:00.594Z,21.94
2022-09-11T05:58:02.144Z,21.93
2022-09-11T06:00:04.025Z,21.93
2022-09-11T06:02:05.639Z,21.94
2022-09-11T06:04:07.223Z,21.93
2022-09-11T06:06:08.478Z,21.92
2022-09-11T06:08:09.795Z,21.91
2022-09-11T06:10:11.299Z,21.91
2022-09-11T06:12:12.784Z,21.92
2022-09-11T06:14:14.101Z,21.91
2022-09-11T06:16:18.394Z,21.92
2022-09-11T06:18:20.094Z,21.91
2022-09-11T06:20:21.393Z,21.87
2022-09-11T06:22:23.165Z,21.86
2022-09-11T06:24:24.458Z,21.86
2022-09-11T06:26:25.751Z,21.85
2022-09-11T06:28:27.087Z,21.89
2022-09-11T06:30:28.444Z,21.90
2022-09-11T06:32:29.827Z,21.91
2022-09-11T06:34:31.893Z,21.96
2022-09-11T06:36:33.193Z,21.99
2022-09-11T06:38:34.471Z,22.00
2022-09-11T06:40:35.747Z,21.97
2022-09-11T06:42:37.039Z,21.95
2022-09-11T06:44:38.311Z,21.92
2022-09-11T06:46:40.327Z,21.92
2022-09-11T06:48:41.627Z,21.90
2022-09-11T06:50:42.994Z,21.90
2022-09-11T06:52:45.049Z,21.90
2022-09-11T06:54:46.310Z,21.92
2022-09-11T06:56:47.606Z,21.94
2022-09-11T06:58:50.299Z,21.95
2022-09-11T07:00:51.591Z,21.95
2022-09-11T07:02:56.967Z,21.92
2022-09-11T07:04:58.246Z,21.91
2022-09-11T07:06:59.570Z,21.87
2022-09-11T07:09:02.368Z,22.04
2022-09-11T07:11:04.716Z,22.13
2022-09-11T07:13:05.966Z,22.01
2022-09-11T07:15:07.293Z,21.91
2022-09-11T07:17:08.557Z,21.83
2022-09-11T07:19:10.450Z,21.74
2022-09-11T07:21:11.726Z,21.70
2022-09-11T07:23:13.042Z,21.67
2022-09-11T07:25:14.779Z,21.64
2022-09-11T07:27:16.669Z,21.63
2022-09-11T07:29:18.474Z,21.63
2022-09-11T07:31:21.051Z,21.62
2022-09-11T07:33:23.062Z,21.62
2022-09-11T07:35:24.356Z,21.60
2022-09-11T07:37:25.626Z,21.68
2022-09-11T07:39:26.905Z,21.76
2022-09-11T07:41:28.395Z,22.22
2022-09-11T07:43:29.695Z,22.49
2022-09-11T07:45:32.086Z,22.46
2022-09-11T07:47:34.587Z,22.15
2022-09-11T07:49:35.846Z,22.23
2022-09-11T07:51:37.130Z,22.67
2022-09-11T07:53:38.924Z,23.25
2022-09-11T07:55:40.255Z,23.19
2022-09-11T07:57:41.578Z,23.05
2022-09-11T07:59:42.862Z,23.11
2022-09-11T08:01:44.130Z,22.90
2022-09-11T08:03:45.458Z,23.14
2022-09-11T08:05:46.722Z,23.14
2022-09-11T08:07:48.047Z,23.03
2022-09-11T08:10:04.445Z,22.99
2022-09-11T08:12:11.181Z,23.02
2022-09-11T08:14:13.768Z,23.01
2022-09-11T08:16:15.102Z,23.10
2022-09-11T08:18:16.452Z,23.08
2022-09-11T08:20:17.981Z,22.98
2022-09-11T08:22:19.729Z,23.05
2022-09-11T08:24:21.439Z,23.09
2022-09-11T08:26:22.828Z,23.20
2022-09-11T08:28:24.179Z,23.17
2022-09-11T08:30:25.457Z,23.12
2022-09-11T08:32:26.771Z,23.30
2022-09-11T08:34:28.097Z,23.39
2022-09-11T08:36:29.847Z,23.39
2022-09-11T08:38:31.178Z,23.21
2022-09-11T08:40:32.510Z,22.78
2022-09-11T08:42:34.352Z,22.50
2022-09-11T08:44:39.074Z,22.34
2022-09-11T08:46:40.573Z,22.26
2022-09-11T08:48:42.206Z,22.22
2022-09-11T08:50:43.524Z,22.17
2022-09-11T08:52:44.817Z,22.12
2022-09-11T08:54:46.113Z,21.32
2022-09-11T08:56:48.179Z,22.07
2022-09-11T08:58:49.840Z,22.07
2022-09-11T09:00:51.285Z,22.05
2022-09-11T09:02:52.703Z,22.03
2022-09-11T09:04:53.995Z,22.04
2022-09-11T09:06:55.495Z,22.03
2022-09-11T09:08:56.772Z,22.02
2022-09-11T09:10:58.274Z,22.00
2022-09-11T09:12:59.557Z,21.98
2022-09-11T09:15:00.815Z,21.99
2022-09-11T09:17:02.128Z,21.97
2022-09-11T09:19:03.539Z,21.97
2022-09-11T09:21:04.798Z,21.95
2022-09-11T09:23:06.132Z,21.93
2022-09-11T09:25:07.409Z,21.93
2022-09-11T09:27:08.764Z,21.94
2022-09-11T09:29:10.042Z,21.92
2022-09-11T09:31:11.369Z,21.91
2022-09-11T09:33:13.355Z,21.90
2022-09-11T09:35:15.396Z,21.11
2022-09-11T09:37:17.538Z,21.86
2022-09-11T09:39:18.825Z,21.86
2022-09-11T09:41:20.099Z,21.85
2022-09-11T09:43:21.373Z,21.85
2022-09-11T09:45:24.486Z,21.84
2022-09-11T09:47:26.747Z,21.82
2022-09-11T09:49:28.043Z,21.79
2022-09-11T09:51:29.322Z,21.81
2022-09-11T09:53:30.667Z,21.78
2022-09-11T09:55:32.000Z,21.80
2022-09-11T09:57:33.279Z,21.79
2022-09-11T09:59:34.835Z,21.81
2022-09-11T10:01:38.076Z,21.82
2022-09-11T10:03:39.459Z,21.82
2022-09-11T10:05:40.741Z,21.85
2022-09-11T10:07:42.000Z,21.90
2022-09-11T10:09:43.315Z,21.87
2022-09-11T10:11:46.720Z,21.86
2022-09-11T10:13:47.995Z,21.84
2022-09-11T10:15:49.382Z,21.80
2022-09-11T10:17:51.591Z,21.80
2022-09-11T10:19:52.895Z,21.79
2022-09-11T10:21:54.190Z,21.76
2022-09-11T10:23:55.622Z,21.77
2022-09-11T10:25:56.984Z,21.78
2022-09-11T10:27:59.133Z,21.80
2022-09-11T10:30:00.531Z,21.83
2022-09-11T10:32:02.543Z,21.84
2022-09-11T10:34:03.882Z,21.85
2022-09-11T10:36:05.456Z,21.85
2022-09-11T10:38:06.754Z,21.83
2022-09-11T10:40:08.844Z,21.82
2022-09-11T10:42:10.607Z,21.81
2022-09-11T10:44:11.882Z,21.80
2022-09-11T10:46:13.574Z,21.79
2022-09-11T10:48:14.930Z,21.78
2022-09-11T10:50:16.244Z,21.77
2022-09-11T10:52:18.816Z,21.76
2022-09-11T10:54:20.154Z,21.73
2022-09-11T10:56:21.435Z,21.73
2022-09-11T10:58:23.307Z,21.72
2022-09-11T11:00:24.584Z,21.71
2022-09-11T11:02:25.884Z,21.70
2022-09-11T11:04:27.246Z,21.67
2022-09-11T11:06:28.577Z,21.63
2022-09-11T11:08:30.135Z,21.63
2022-09-11T11:10:32.454Z,21.59
2022-09-11T11:12:33.777Z,21.57
2022-09-11T11:14:35.267Z,21.54
2022-09-11T11:16:36.606Z,21.54
2022-09-11T11:18:37.880Z,21.51
2022-09-11T11:20:39.169Z,21.51
2022-09-11T11:22:40.919Z,21.52
2022-09-11T11:24:42.195Z,21.51
2022-09-11T11:26:43.670Z,21.50
2022-09-11T11:28:44.947Z,21.49
2022-09-11T11:30:46.321Z,21.51
2022-09-11T11:32:48.245Z,21.50
2022-09-11T11:34:51.285Z,21.52
2022-09-11T11:36:52.571Z,21.52
2022-09-11T11:39:00.243Z,21.51
2022-09-11T11:41:03.142Z,21.51
2022-09-11T11:43:04.491Z,21.50
2022-09-11T11:45:05.758Z,21.47
2022-09-11T11:47:07.050Z,21.49
2022-09-11T11:49:08.321Z,21.51
2022-09-11T11:51:09.734Z,21.50
2022-09-11T11:53:12.328Z,21.49
2022-09-11T11:55:13.593Z,21.47
2022-09-11T11:57:16.795Z,21.47
2022-09-11T11:59:18.182Z,21.48
2022-09-11T12:01:19.507Z,21.48
2022-09-11T12:03:21.948Z,21.47
2022-09-11T12:05:26.372Z,21.47
2022-09-11T12:07:27.664Z,21.46
2022-09-11T12:09:33.800Z,21.45
2022-09-11T12:11:35.375Z,21.98
2022-09-11T12:13:36.687Z,22.20
2022-09-11T12:15:38.500Z,22.39
2022-09-11T12:17:43.927Z,22.39
2022-09-11T12:19:47.872Z,22.42
2022-09-11T12:21:49.178Z,22.40
2022-09-11T12:23:51.116Z,22.43
2022-09-11T12:25:53.668Z,22.47
2022-09-11T12:27:55.842Z,22.83
2022-09-11T12:29:57.168Z,22.99
2022-09-11T12:31:58.486Z,22.83
2022-09-11T12:33:59.816Z,23.03
2022-09-11T12:36:01.119Z,22.58
2022-09-11T12:38:02.661Z,22.75
2022-09-11T12:40:03.998Z,22.77
2022-09-11T12:42:06.412Z,23.01
2022-09-11T12:44:08.014Z,23.04
2022-09-11T12:46:09.333Z,23.21
2022-09-11T12:48:10.714Z,23.11
2022-09-11T12:50:12.210Z,23.48
2022-09-11T12:52:13.991Z,23.32
2022-09-11T12:54:15.331Z,23.30
2022-09-11T12:56:16.617Z,23.24
2022-09-11T12:58:18.878Z,23.41
2022-09-11T13:00:20.316Z,23.53
2022-09-11T13:02:21.614Z,23.37
2022-09-11T13:04:22.998Z,23.38
2022-09-11T13:06:24.295Z,22.91
2022-09-11T13:08:26.250Z,22.56
2022-09-11T13:10:28.799Z,22.41
2022-09-11T13:12:30.109Z,22.32
2022-09-11T13:14:31.439Z,22.27
2022-09-11T13:16:34.930Z,22.24
2022-09-11T13:18:36.264Z,22.19
2022-09-11T13:20:38.006Z,22.14
2022-09-11T13:22:39.340Z,22.11
2022-09-11T13:24:40.622Z,22.10
2022-09-11T13:26:42.122Z,22.10
2022-09-11T13:28:43.433Z,22.08
2022-09-11T13:30:44.799Z,22.06
2022-09-11T13:32:47.306Z,22.04
2022-09-11T13:34:48.605Z,22.04
2022-09-11T13:36:54.596Z,22.04
2022-09-11T13:38:57.703Z,22.03
2022-09-11T13:40:59.067Z,22.03
2022-09-11T13:43:00.357Z,22.06
2022-09-11T13:45:01.936Z,22.06
2022-09-11T13:47:06.388Z,22.20
2022-09-11T13:49:07.675Z,22.35
2022-09-11T13:51:08.946Z,22.46
2022-09-11T13:53:10.234Z,22.53
2022-09-11T13:55:11.567Z,22.60
2022-09-11T13:57:13.027Z,22.63
2022-09-11T13:59:15.470Z,22.63
2022-09-11T14:01:16.927Z,22.60
2022-09-11T14:03:18.449Z,22.55
2022-09-11T14:07:24.115Z,22.57
2022-09-11T14:09:25.414Z,22.57
2022-09-11T14:11:27.134Z,22.59
2022-09-11T14:13:28.407Z,22.51
2022-09-11T14:15:29.982Z,22.46
2022-09-11T14:17:31.295Z,22.49
2022-09-11T14:19:32.635Z,22.50
2022-09-11T14:21:33.903Z,22.45
2022-09-11T14:23:35.214Z,22.38
2022-09-11T14:25:36.530Z,22.35
2022-09-11T14:27:38.021Z,22.33
2022-09-11T14:29:39.298Z,22.27
2022-09-11T14:31:40.603Z,22.24
2022-09-11T14:33:42.083Z,22.23
2022-09-11T14:35:43.411Z,22.32
2022-09-11T14:37:45.712Z,22.33
2022-09-11T14:39:47.420Z,22.30
2022-09-11T14:41:48.739Z,22.33
2022-09-11T14:43:50.347Z,22.35
2022-09-11T14:45:52.470Z,22.35
2022-09-11T14:47:53.734Z,22.33
2022-09-11T14:49:54.988Z,22.33
2022-09-11T14:51:58.242Z,22.30
2022-09-11T14:53:59.535Z,22.32
2022-09-11T14:56:00.830Z,22.31
2022-09-11T14:58:03.280Z,21.65
2022-09-11T15:00:04.548Z,21.35
2022-09-11T15:02:05.840Z,21.19
2022-09-11T15:04:07.124Z,21.18
2022-09-11T15:06:08.461Z,21.13
2022-09-11T15:08:09.739Z,21.06
2022-09-11T15:10:11.035Z,21.24
2022-09-11T15:12:12.302Z,21.47
2022-09-11T15:14:23.677Z,21.63
2022-09-11T15:16:29.062Z,22.47
2022-09-11T15:18:30.330Z,22.82
2022-09-11T15:20:32.086Z,23.05
2022-09-11T15:22:33.374Z,23.23
2022-09-11T15:24:35.063Z,23.21
2022-09-11T15:26:37.341Z,22.84
2022-09-11T15:28:39.039Z,22.91
2022-09-11T15:30:40.527Z,23.02
2022-09-11T15:32:41.823Z,23.00
2022-09-11T15:34:45.307Z,22.49
2022-09-11T15:36:46.564Z,22.38
2022-09-11T15:38:48.035Z,22.17
2022-09-11T15:40:49.296Z,22.05
2022-09-11T15:42:50.698Z,22.44
2022-09-11T15:44:53.030Z,22.69
2022-09-11T15:46:54.298Z,22.81
2022-09-11T15:48:55.583Z,22.70
2022-09-11T15:50:56.863Z,22.74
2022-09-11T15:52:58.135Z,22.43
2022-09-11T15:54:59.470Z,22.22
2022-09-11T15:57:00.785Z,22.10
2022-09-11T15:59:02.063Z,22.03
2022-09-11T16:01:03.598Z,21.96
2022-09-11T16:03:04.911Z,22.16
2022-09-11T16:05:06.188Z,22.61
2022-09-11T16:07:07.523Z,22.91
2022-09-11T16:09:08.839Z,23.04
2022-09-11T16:11:11.411Z,23.10
2022-09-11T16:13:13.186Z,23.11
2022-09-11T16:15:14.506Z,22.99
2022-09-11T16:17:19.393Z,23.06
2022-09-11T16:19:20.660Z,23.14
2022-09-11T16:21:23.217Z,23.20
2022-09-11T16:23:25.630Z,23.24
2022-09-11T16:25:27.991Z,23.26
2022-09-11T16:27:29.331Z,22.91
2022-09-11T16:29:44.275Z,22.85
2022-09-11T16:31:51.938Z,23.23
2022-09-11T16:33:56.914Z,23.05
2022-09-11T16:35:58.491Z,23.03
2022-09-11T16:38:00.763Z,23.28
2022-09-11T16:40:02.660Z,23.42
2022-09-11T16:42:04.183Z,23.44
2022-09-11T16:44:05.480Z,23.47
2022-09-11T16:46:06.878Z,23.50
2022-09-11T16:48:09.758Z,23.30
2022-09-11T16:50:11.078Z,23.57
2022-09-11T16:52:12.475Z,23.28
2022-09-11T16:54:13.803Z,23.37
2022-09-11T16:56:15.138Z,23.52
2022-09-11T16:58:16.549Z,23.56
2022-09-11T17:00:17.833Z,23.50
2022-09-11T17:02:19.157Z,23.45
2022-09-11T17:04:20.458Z,23.38
2022-09-11T17:06:21.782Z,23.31
2022-09-11T17:08:23.107Z,23.31
2022-09-11T17:10:24.442Z,23.22
2022-09-11T17:12:25.754Z,22.84
2022-09-11T17:14:29.421Z,22.65
2022-09-11T17:16:32.246Z,22.51
2022-09-11T17:18:33.614Z,22.57
2022-09-11T17:20:34.883Z,23.02
2022-09-11T17:22:37.422Z,23.20
2022-09-11T17:24:39.620Z,23.31
2022-09-11T17:26:40.994Z,23.14
2022-09-11T17:28:42.375Z,23.32
2022-09-11T17:30:44.403Z,23.39
2022-09-11T17:32:45.686Z,23.38
2022-09-11T17:34:47.456Z,23.41
2022-09-11T17:36:49.272Z,23.09
2022-09-11T17:38:50.615Z,22.85
2022-09-11T17:40:51.879Z,22.72
2022-09-11T17:42:53.138Z,23.04
2022-09-11T17:44:54.419Z,23.06
2022-09-11T17:47:00.051Z,23.07
2022-09-11T17:49:02.030Z,23.21
2022-09-11T17:51:03.359Z,23.21
2022-09-11T17:53:06.011Z,23.19
2022-09-11T17:55:07.316Z,23.01
2022-09-11T17:57:08.620Z,23.01
2022-09-11T17:59:10.855Z,22.90
2022-09-11T18:01:16.590Z,22.97
2022-09-11T18:03:22.648Z,23.02
2022-09-11T18:05:23.984Z,23.07
2022-09-11T18:07:25.306Z,23.26
2022-09-11T18:09:26.635Z,23.21
2022-09-11T18:11:27.939Z,23.21
2022-09-11T18:13:29.212Z,23.23
2022-09-11T18:15:30.546Z,23.22
2022-09-11T18:17:32.179Z,23.21
2022-09-11T18:19:33.479Z,23.28
2022-09-11T18:21:38.263Z,23.35
2022-09-11T18:23:39.876Z,23.23
2022-09-11T18:25:41.192Z,23.27
2022-09-11T18:27:44.053Z,22.90
2022-09-11T18:29:45.448Z,23.20
2022-09-11T18:31:46.795Z,23.15
2022-09-11T18:33:48.137Z,23.19
2022-09-11T18:35:50.062Z,23.24
2022-09-11T18:37:51.355Z,23.30
2022-09-11T18:39:54.027Z,23.39
2022-09-11T18:41:55.435Z,23.33
2022-09-11T18:43:56.792Z,23.34
2022-09-11T18:45:59.918Z,23.33
2022-09-11T18:48:01.283Z,23.35
2022-09-11T18:50:04.110Z,23.55
2022-09-11T18:52:05.643Z,23.51
2022-09-11T18:54:08.918Z,23.34
2022-09-11T18:56:11.518Z,23.23
2022-09-11T18:58:13.034Z,23.20
2022-09-11T19:00:15.723Z,23.19
2022-09-11T19:02:17.504Z,23.20
2022-09-11T19:04:20.246Z,23.01
2022-09-11T19:06:21.567Z,22.69
2022-09-11T19:08:22.885Z,22.69
2022-09-11T19:10:24.172Z,22.82
2022-09-11T19:12:26.199Z,22.92
2022-09-11T19:14:27.897Z,22.97
2022-09-11T19:16:29.183Z,22.96
2022-09-11T19:18:31.526Z,22.96
2022-09-11T19:20:33.058Z,23.00
2022-09-11T19:22:35.461Z,23.01
2022-09-11T19:24:36.777Z,22.98
2022-09-11T19:26:41.388Z,22.99
2022-09-11T19:28:42.734Z,22.98
2022-09-11T19:30:44.136Z,22.99
2022-09-11T19:32:45.404Z,22.96
2022-09-11T19:34:54.722Z,23.00
2022-09-11T19:36:56.058Z,23.08
2022-09-11T19:39:00.473Z,23.11
2022-09-11T19:41:02.199Z,23.12
2022-09-11T19:43:03.794Z,23.10
2022-09-11T19:45:05.900Z,23.13
2022-09-11T19:47:07.207Z,23.14
2022-09-11T19:49:08.941Z,23.15
2022-09-11T19:51:10.220Z,23.13
2022-09-11T19:53:11.571Z,22.28
2022-09-11T19:55:12.858Z,22.68
2022-09-11T19:57:14.190Z,22.69
2022-09-11T19:59:15.615Z,22.92
2022-09-11T20:01:16.889Z,22.95
2022-09-11T20:03:18.183Z,22.96
2022-09-11T20:05:19.503Z,22.96
2022-09-11T20:07:21.085Z,22.95
2022-09-11T20:09:37.748Z,22.97
2022-09-11T20:11:39.083Z,22.96
2022-09-11T20:13:40.387Z,22.96
2022-09-11T20:15:41.893Z,22.97
2022-09-11T20:17:44.827Z,23.05
2022-09-11T20:19:46.102Z,23.04
2022-09-11T20:21:47.415Z,23.08
2022-09-11T20:23:48.746Z,23.05
2022-09-11T20:25:50.240Z,23.09
2022-09-11T20:27:51.843Z,23.12
2022-09-11T20:29:53.120Z,23.08
2022-09-11T20:31:55.890Z,23.06
2022-09-11T20:33:57.247Z,23.07
2022-09-11T20:36:00.403Z,23.40
2022-09-11T20:38:01.886Z,23.28
2022-09-11T20:40:03.831Z,22.63
2022-09-11T20:42:05.127Z,22.04
2022-09-11T20:44:06.413Z,21.84
2022-09-11T20:46:07.722Z,22.08
2022-09-11T20:48:09.005Z,22.19
2022-09-11T20:50:10.326Z,22.23
2022-09-11T20:52:11.677Z,22.22
2022-09-11T20:54:12.966Z,22.19
2022-09-11T20:56:14.279Z,22.17
2022-09-11T20:58:15.784Z,22.15
2022-09-11T21:00:17.056Z,22.13
2022-09-11T21:02:19.120Z,22.11
2022-09-11T21:04:20.454Z,22.09
2022-09-11T21:06:25.531Z,22.08
2022-09-11T21:08:27.499Z,22.08
2022-09-11T21:10:28.821Z,22.06
2022-09-11T21:12:30.099Z,22.06
2022-09-11T21:14:31.412Z,22.05
2022-09-11T21:16:32.814Z,22.02
2022-09-11T21:18:34.118Z,22.01
2022-09-11T21:20:35.459Z,22.00
2022-09-11T21:22:36.738Z,21.98
2022-09-11T21:24:38.042Z,21.98
2022-09-11T21:26:39.366Z,21.97
2022-09-11T21:28:40.690Z,21.95
2022-09-11T21:30:41.973Z,21.94
2022-09-11T21:32:43.284Z,21.75
2022-09-11T21:34:44.559Z,21.90
2022-09-11T21:36:45.826Z,21.90
2022-09-11T21:38:47.163Z,21.89
2022-09-11T21:40:48.469Z,21.87
2022-09-11T21:42:49.743Z,21.85
2022-09-11T21:44:51.051Z,21.85
2022-09-11T21:46:52.414Z,21.84
2022-09-11T21:48:53.773Z,21.82
2022-09-11T21:50:55.039Z,21.81
2022-09-11T21:52:56.319Z,21.80
2022-09-11T21:54:58.671Z,21.81
2022-09-11T21:57:00.003Z,21.82
2022-09-11T21:59:01.350Z,21.84
2022-09-11T22:01:05.833Z,21.81
2022-09-11T22:03:07.343Z,21.82
2022-09-11T22:05:08.938Z,21.79
2022-09-11T22:07:12.264Z,21.87
2022-09-11T22:09:13.573Z,21.92
2022-09-11T22:11:14.872Z,21.91
2022-09-11T22:13:16.199Z,21.92
2022-09-11T22:15:17.495Z,21.92
2022-09-11T22:17:18.762Z,21.91
2022-09-11T22:19:20.068Z,21.91
2022-09-11T22:21:21.331Z,21.91
2022-09-11T22:23:22.614Z,21.89
2022-09-11T22:25:23.932Z,21.88
2022-09-11T22:27:25.214Z,21.87
2022-09-11T22:29:26.498Z,21.86
2022-09-11T22:31:28.884Z,21.85
2022-09-11T22:33:30.219Z,21.84
2022-09-11T22:35:31.503Z,21.82
2022-09-11T22:37:32.801Z,21.66
2022-09-11T22:39:34.116Z,21.68
2022-09-11T22:41:35.741Z,21.70
2022-09-11T22:43:37.157Z,21.69
2022-09-11T22:45:38.593Z,21.68
2022-09-11T22:47:39.902Z,21.68
2022-09-11T22:49:41.170Z,21.68
2022-09-11T22:51:42.447Z,21.67
2022-09-11T22:53:43.990Z,21.66
2022-09-11T22:55:45.410Z,21.65
2022-09-11T22:57:46.679Z,21.64
2022-09-11T22:59:48.148Z,21.62
2022-09-11T23:01:49.460Z,21.62
2022-09-11T23:03:50.866Z,21.62
2022-09-11T23:06:10.875Z,21.62
2022-09-11T23:08:12.141Z,21.61
2022-09-11T23:10:13.570Z,21.61
2022-09-11T23:12:14.860Z,21.60
2022-09-11T23:14:16.178Z,21.61
2022-09-11T23:16:17.505Z,21.58
2022-09-11T23:18:18.868Z,21.58
2022-09-11T23:20:20.186Z,21.58
2022-09-11T23:22:21.666Z,21.57
2022-09-11T23:24:23.033Z,21.57
2022-09-11T23:26:24.333Z,21.55
2022-09-11T23:28:25.670Z,21.54
2022-09-11T23:30:27.004Z,21.54
2022-09-11T23:32:28.271Z,21.53
2022-09-11T23:34:29.795Z,21.53
2022-09-11T23:36:31.079Z,21.51
2022-09-11T23:38:32.415Z,21.51
2022-09-11T23:40:33.685Z,21.52
2022-09-11T23:42:34.941Z,21.55
2022-09-11T23:44:36.254Z,21.58
2022-09-11T23:46:38.236Z,21.59
2022-09-11T23:48:39.490Z,21.58
2022-09-11T23:50:41.817Z,21.59
2022-09-11T23:52:43.115Z,21.64
2022-09-11T23:54:44.407Z,21.68
2022-09-11T23:56:45.731Z,21.70
2022-09-11T23:58:47.118Z,21.68
